sensor_id;sensor_type;location;lat;lon;timestamp;pressure;altitude;pressure_sealevel;temperature;humidity
73674;BME280;61975;48.660;10.164;2022-09-09T00:00:24;95364.13;;;13.41;91.68
73674;BME280;61975;48.660;10.164;2022-09-09T00:03:08;95365.69;;;13.42;91.19
73674;BME280;61975;48.660;10.164;2022-09-09T00:08:19;95365.34;;;13.40;91.37
73674;BME280;61975;48.660;10.164;2022-09-09T00:10:51;95364.16;;;13.34;91.24
73674;BME280;61975;48.660;10.164;2022-09-09T00:13:37;95357.81;;;13.30;91.45
73674;BME280;61975;48.660;10.164;2022-09-09T00:16:14;95363.81;;;13.28;91.78
73674;BME280;61975;48.660;10.164;2022-09-09T00:21:13;95376.56;;;13.26;91.52
73674;BME280;61975;48.660;10.164;2022-09-09T00:23:53;95373.81;;;13.19;91.48
73674;BME280;61975;48.660;10.164;2022-09-09T00:31:47;95361.50;;;13.13;91.03
73674;BME280;61975;48.660;10.164;2022-09-09T00:34:20;95375.03;;;13.11;90.88
73674;BME280;61975;48.660;10.164;2022-09-09T00:36:48;95367.13;;;13.06;91.57
73674;BME280;61975;48.660;10.164;2022-09-09T00:39:37;95367.13;;;13.02;91.41
73674;BME280;61975;48.660;10.164;2022-09-09T00:44:35;95374.69;;;12.98;91.24
73674;BME280;61975;48.660;10.164;2022-09-09T00:50:05;95371.91;;;12.95;90.80
73674;BME280;61975;48.660;10.164;2022-09-09T00:52:49;95367.16;;;12.92;92.00
73674;BME280;61975;48.660;10.164;2022-09-09T00:55:21;95375.09;;;12.90;91.36
73674;BME280;61975;48.660;10.164;2022-09-09T00:57:52;95369.59;;;12.76;93.40
73674;BME280;61975;48.660;10.164;2022-09-09T01:11:01;95367.63;;;12.66;91.99
73674;BME280;61975;48.660;10.164;2022-09-09T01:13:35;95365.25;;;12.64;92.18
73674;BME280;61975;48.660;10.164;2022-09-09T01:16:03;95375.63;;;12.64;92.12
73674;BME280;61975;48.660;10.164;2022-09-09T01:18:33;95365.66;;;12.63;92.22
73674;BME280;61975;48.660;10.164;2022-09-09T01:26:52;95359.72;;;12.57;92.11
73674;BME280;61975;48.660;10.164;2022-09-09T01:29:21;95356.53;;;12.52;92.97
73674;BME280;61975;48.660;10.164;2022-09-09T01:34:18;95353.38;;;12.50;92.97
73674;BME280;61975;48.660;10.164;2022-09-09T01:36:45;95351.78;;;12.52;93.36
73674;BME280;61975;48.660;10.164;2022-09-09T01:39:13;95349.00;;;12.49;92.69
73674;BME280;61975;48.660;10.164;2022-09-09T01:41:38;95356.97;;;12.47;92.59
73674;BME280;61975;48.660;10.164;2022-09-09T01:44:05;95355.38;;;12.46;92.96
73674;BME280;61975;48.660;10.164;2022-09-09T01:46:31;95352.56;;;12.46;92.80
73674;BME280;61975;48.660;10.164;2022-09-09T01:48:57;95351.00;;;12.45;92.88
73674;BME280;61975;48.660;10.164;2022-09-09T01:51:24;95349.78;;;12.46;92.49
73674;BME280;61975;48.660;10.164;2022-09-09T01:53:49;95349.41;;;12.44;91.85
73674;BME280;61975;48.660;10.164;2022-09-09T01:56:25;95354.59;;;12.42;91.42
73674;BME280;61975;48.660;10.164;2022-09-09T02:01:35;95351.03;;;12.34;91.39
73674;BME280;61975;48.660;10.164;2022-09-09T02:04:23;95348.25;;;12.31;91.38
73674;BME280;61975;48.660;10.164;2022-09-09T02:06:55;95342.31;;;12.25;92.20
73674;BME280;61975;48.660;10.164;2022-09-09T02:09:24;95346.69;;;12.23;92.42
73674;BME280;61975;48.660;10.164;2022-09-09T02:12:00;95352.25;;;12.19;92.53
73674;BME280;61975;48.660;10.164;2022-09-09T02:14:35;95348.69;;;12.15;92.39
73674;BME280;61975;48.660;10.164;2022-09-09T02:17:08;95348.31;;;12.13;92.51
73674;BME280;61975;48.660;10.164;2022-09-09T02:19:42;95345.13;;;12.11;92.81
73674;BME280;61975;48.660;10.164;2022-09-09T02:22:11;95337.97;;;12.10;93.06
73674;BME280;61975;48.660;10.164;2022-09-09T02:24:39;95344.34;;;12.07;93.03
73674;BME280;61975;48.660;10.164;2022-09-09T02:27:08;95349.91;;;12.07;93.57
73674;BME280;61975;48.660;10.164;2022-09-09T02:29:40;95344.34;;;12.07;93.57
73674;BME280;61975;48.660;10.164;2022-09-09T02:32:15;95344.31;;;12.11;93.85
73674;BME280;61975;48.660;10.164;2022-09-09T02:34:47;95340.34;;;12.12;92.83
73674;BME280;61975;48.660;10.164;2022-09-09T02:37:15;95347.09;;;12.11;92.40
73674;BME280;61975;48.660;10.164;2022-09-09T02:39:42;95342.34;;;12.11;92.26
73674;BME280;61975;48.660;10.164;2022-09-09T02:42:07;95338.75;;;12.11;92.33
73674;BME280;61975;48.660;10.164;2022-09-09T02:44:33;95329.63;;;12.07;91.92
73674;BME280;61975;48.660;10.164;2022-09-09T02:52:08;95331.63;;;11.96;92.20
73674;BME280;61975;48.660;10.164;2022-09-09T02:54:40;95334.81;;;11.94;91.95
73674;BME280;61975;48.660;10.164;2022-09-09T02:57:12;95338.41;;;11.95;91.59
73674;BME280;61975;48.660;10.164;2022-09-09T02:59:39;95332.41;;;11.93;91.11
73674;BME280;61975;48.660;10.164;2022-09-09T03:02:05;95343.56;;;11.93;91.29
73674;BME280;61975;48.660;10.164;2022-09-09T03:04:31;95338.00;;;11.93;91.13
73674;BME280;61975;48.660;10.164;2022-09-09T03:06:58;95347.13;;;11.90;90.67
73674;BME280;61975;48.660;10.164;2022-09-09T03:09:23;95341.97;;;11.92;90.42
73674;BME280;61975;48.660;10.164;2022-09-09T03:11:49;95347.91;;;11.94;89.82
73674;BME280;61975;48.660;10.164;2022-09-09T03:14:15;95343.56;;;11.96;89.89
73674;BME280;61975;48.660;10.164;2022-09-09T03:16:41;95341.94;;;11.95;89.75
73674;BME280;61975;48.660;10.164;2022-09-09T03:19:11;95338.78;;;11.93;90.31
73674;BME280;61975;48.660;10.164;2022-09-09T03:21:36;95349.09;;;11.93;90.78
73674;BME280;61975;48.660;10.164;2022-09-09T03:24:02;95349.09;;;11.93;91.15
73674;BME280;61975;48.660;10.164;2022-09-09T03:26:29;95342.75;;;11.92;91.30
73674;BME280;61975;48.660;10.164;2022-09-09T03:28:55;95344.75;;;11.92;92.03
73674;BME280;61975;48.660;10.164;2022-09-09T03:31:21;95345.94;;;11.91;92.18
73674;BME280;61975;48.660;10.164;2022-09-09T03:33:46;95335.19;;;11.93;92.14
73674;BME280;61975;48.660;10.164;2022-09-09T03:36:13;95318.13;;;11.91;92.12
73674;BME280;61975;48.660;10.164;2022-09-09T03:38:39;95317.72;;;11.89;92.99
73674;BME280;61975;48.660;10.164;2022-09-09T03:41:05;95325.66;;;11.87;93.17
73674;BME280;61975;48.660;10.164;2022-09-09T03:43:33;95319.31;;;11.90;93.63
73674;BME280;61975;48.660;10.164;2022-09-09T03:45:59;95318.13;;;11.91;93.26
73674;BME280;61975;48.660;10.164;2022-09-09T03:48:24;95322.91;;;11.90;93.10
73674;BME280;61975;48.660;10.164;2022-09-09T03:50:52;95326.06;;;11.92;92.61
73674;BME280;61975;48.660;10.164;2022-09-09T03:53:22;95323.69;;;11.91;93.09
73674;BME280;61975;48.660;10.164;2022-09-09T03:55:50;95334.00;;;11.94;93.07
73674;BME280;61975;48.660;10.164;2022-09-09T03:58:18;95330.03;;;11.98;92.65
73674;BME280;61975;48.660;10.164;2022-09-09T04:00:53;95331.63;;;12.03;92.66
73674;BME280;61975;48.660;10.164;2022-09-09T04:03:18;95347.50;;;12.06;92.53
73674;BME280;61975;48.660;10.164;2022-09-09T04:05:44;95349.50;;;12.09;92.15
73674;BME280;61975;48.660;10.164;2022-09-09T04:08:09;95350.69;;;12.11;91.71
73674;BME280;61975;48.660;10.164;2022-09-09T04:10:35;95341.94;;;12.13;91.85
73674;BME280;61975;48.660;10.164;2022-09-09T04:13:05;95350.66;;;12.15;91.71
73674;BME280;61975;48.660;10.164;2022-09-09T04:15:31;95348.28;;;12.17;92.32
73674;BME280;61975;48.660;10.164;2022-09-09T04:17:56;95345.91;;;12.19;92.87
73674;BME280;61975;48.660;10.164;2022-09-09T04:20:22;95354.63;;;12.21;93.67
73674;BME280;61975;48.660;10.164;2022-09-09T04:22:48;95342.69;;;12.24;92.88
73674;BME280;61975;48.660;10.164;2022-09-09T04:25:14;95351.84;;;12.24;93.18
73674;BME280;61975;48.660;10.164;2022-09-09T04:27:39;95355.81;;;12.27;93.20
73674;BME280;61975;48.660;10.164;2022-09-09T04:30:05;95373.34;;;12.20;95.09
73674;BME280;61975;48.660;10.164;2022-09-09T04:32:35;95375.34;;;12.06;97.04
73674;BME280;61975;48.660;10.164;2022-09-09T04:35:02;95380.88;;;12.09;97.38
73674;BME280;61975;48.660;10.164;2022-09-09T04:37:27;95373.34;;;12.06;97.13
73674;BME280;61975;48.660;10.164;2022-09-09T04:39:53;95361.78;;;12.15;96.09
73674;BME280;61975;48.660;10.164;2022-09-09T04:42:19;95357.00;;;12.22;96.37
73674;BME280;61975;48.660;10.164;2022-09-09T04:44:44;95366.53;;;12.25;96.77
73674;BME280;61975;48.660;10.164;2022-09-09T04:47:10;95371.31;;;12.21;97.20
73674;BME280;61975;48.660;10.164;2022-09-09T04:49:36;95370.16;;;12.22;97.67
73674;BME280;61975;48.660;10.164;2022-09-09T04:52:03;95360.19;;;12.28;98.37
73674;BME280;61975;48.660;10.164;2022-09-09T04:54:29;95360.97;;;12.32;99.05
73674;BME280;61975;48.660;10.164;2022-09-09T04:56:54;95364.56;;;12.36;98.81
73674;BME280;61975;48.660;10.164;2022-09-09T04:59:20;95362.16;;;12.41;98.22
73674;BME280;61975;48.660;10.164;2022-09-09T05:01:47;95360.16;;;12.42;98.64
73674;BME280;61975;48.660;10.164;2022-09-09T05:04:13;95357.38;;;12.45;98.75
73674;BME280;61975;48.660;10.164;2022-09-09T05:06:40;95350.59;;;12.46;98.88
73674;BME280;61975;48.660;10.164;2022-09-09T05:09:05;95345.03;;;12.50;99.08
73674;BME280;61975;48.660;10.164;2022-09-09T05:11:32;95352.19;;;12.51;99.36
73674;BME280;61975;48.660;10.164;2022-09-09T05:14:01;95353.34;;;12.53;99.07
73674;BME280;61975;48.660;10.164;2022-09-09T05:16:26;95364.09;;;12.55;98.65
73674;BME280;61975;48.660;10.164;2022-09-09T05:18:52;95362.53;;;12.54;97.83
73674;BME280;61975;48.660;10.164;2022-09-09T05:21:19;95355.78;;;12.51;97.79
73674;BME280;61975;48.660;10.164;2022-09-09T05:23:45;95355.78;;;12.51;97.71
73674;BME280;61975;48.660;10.164;2022-09-09T05:26:16;95360.91;;;12.53;98.07
73674;BME280;61975;48.660;10.164;2022-09-09T05:28:42;95356.16;;;12.53;98.22
73674;BME280;61975;48.660;10.164;2022-09-09T05:31:09;95362.53;;;12.54;98.50
73674;BME280;61975;48.660;10.164;2022-09-09T05:33:36;95362.53;;;12.54;99.05
73674;BME280;61975;48.660;10.164;2022-09-09T05:36:08;95364.50;;;12.57;98.54
73674;BME280;61975;48.660;10.164;2022-09-09T05:38:34;95363.28;;;12.61;98.19
73674;BME280;61975;48.660;10.164;2022-09-09T05:41:00;95365.66;;;12.63;97.87
73674;BME280;61975;48.660;10.164;2022-09-09T05:43:27;95371.22;;;12.66;97.69
73674;BME280;61975;48.660;10.164;2022-09-09T05:46:04;95379.19;;;12.57;98.58
73674;BME280;61975;48.660;10.164;2022-09-09T05:48:43;95385.56;;;12.58;99.21
73674;BME280;61975;48.660;10.164;2022-09-09T05:51:13;95371.63;;;12.65;99.03
73674;BME280;61975;48.660;10.164;2022-09-09T05:53:41;95370.41;;;12.73;98.39
73674;BME280;61975;48.660;10.164;2022-09-09T05:56:18;95377.56;;;12.81;98.28
73674;BME280;61975;48.660;10.164;2022-09-09T05:58:44;95369.97;;;12.85;97.83
73674;BME280;61975;48.660;10.164;2022-09-09T06:01:15;95371.91;;;12.91;97.54
73674;BME280;61975;48.660;10.164;2022-09-09T06:03:42;95367.91;;;12.96;97.51
73674;BME280;61975;48.660;10.164;2022-09-09T06:06:45;95367.91;;;13.03;96.91
73674;BME280;61975;48.660;10.164;2022-09-09T06:09:07;95371.47;;;13.10;96.76
73674;BME280;61975;48.660;10.164;2022-09-09T06:11:35;95376.66;;;13.12;97.19
73674;BME280;61975;48.660;10.164;2022-09-09T06:14:01;95375.03;;;13.14;96.87
73674;BME280;61975;48.660;10.164;2022-09-09T06:16:28;95379.81;;;13.17;97.10
73674;BME280;61975;48.660;10.164;2022-09-09T06:18:55;95382.16;;;13.22;96.56
73674;BME280;61975;48.660;10.164;2022-09-09T06:21:39;95378.16;;;13.27;96.41
73674;BME280;61975;48.660;10.164;2022-09-09T06:24:06;95369.34;;;13.32;95.91
73674;BME280;61975;48.660;10.164;2022-09-09T06:26:37;95362.16;;;13.38;96.33
73674;BME280;61975;48.660;10.164;2022-09-09T06:29:05;95370.09;;;13.39;96.90
73674;BME280;61975;48.660;10.164;2022-09-09T06:31:32;95362.94;;;13.38;97.21
73674;BME280;61975;48.660;10.164;2022-09-09T06:34:00;95358.13;;;13.42;97.75
73674;BME280;61975;48.660;10.164;2022-09-09T06:36:32;95353.69;;;13.52;96.67
73674;BME280;61975;48.660;10.164;2022-09-09T06:38:59;95358.00;;;13.60;96.33
73674;BME280;61975;48.660;10.164;2022-09-09T06:41:29;95364.69;;;13.76;95.65
73674;BME280;61975;48.660;10.164;2022-09-09T06:43:54;95371.38;;;13.86;95.22
73674;BME280;61975;48.660;10.164;2022-09-09T06:46:27;95370.56;;;13.89;95.78
73674;BME280;61975;48.660;10.164;2022-09-09T06:48:54;95373.72;;;13.91;95.34
73674;BME280;61975;48.660;10.164;2022-09-09T06:51:34;95383.22;;;13.97;95.20
73674;BME280;61975;48.660;10.164;2022-09-09T06:54:01;95383.13;;;14.11;94.63
73674;BME280;61975;48.660;10.164;2022-09-09T06:56:38;95379.00;;;14.26;95.20
73674;BME280;61975;48.660;10.164;2022-09-09T06:59:06;95378.91;;;14.37;96.34
73674;BME280;61975;48.660;10.164;2022-09-09T07:01:36;95377.22;;;14.46;97.03
73674;BME280;61975;48.660;10.164;2022-09-09T07:04:03;95378.34;;;14.56;96.47
73674;BME280;61975;48.660;10.164;2022-09-09T07:06:36;95389.78;;;14.68;96.83
73674;BME280;61975;48.660;10.164;2022-09-09T07:09:04;95382.16;;;14.72;96.53
73674;BME280;61975;48.660;10.164;2022-09-09T07:11:33;95375.66;;;14.82;97.36
73674;BME280;61975;48.660;10.164;2022-09-09T07:13:59;95382.34;;;14.88;96.84
73674;BME280;61975;48.660;10.164;2022-09-09T07:16:26;95380.69;;;14.94;96.22
73674;BME280;61975;48.660;10.164;2022-09-09T07:18:53;95388.06;;;15.11;95.62
73674;BME280;61975;48.660;10.164;2022-09-09T07:21:23;95395.75;;;15.34;95.47
73674;BME280;61975;48.660;10.164;2022-09-09T07:23:49;95390.47;;;15.43;96.01
73674;BME280;61975;48.660;10.164;2022-09-09T07:26:20;95387.69;;;15.43;95.37
73674;BME280;61975;48.660;10.164;2022-09-09T07:28:47;95378.88;;;15.44;94.15
73674;BME280;61975;48.660;10.164;2022-09-09T07:31:15;95380.66;;;15.58;93.95
73674;BME280;61975;48.660;10.164;2022-09-09T07:33:42;95371.34;;;15.68;92.71
73674;BME280;61975;48.660;10.164;2022-09-09T07:36:09;95368.25;;;15.85;91.45
73674;BME280;61975;48.660;10.164;2022-09-09T07:38:48;95372.78;;;16.02;90.78
73674;BME280;61975;48.660;10.164;2022-09-09T07:41:38;95380.59;;;16.14;89.79
73674;BME280;61975;48.660;10.164;2022-09-09T07:44:22;95382.94;;;16.42;89.30
73674;BME280;61975;48.660;10.164;2022-09-09T07:46:48;95383.09;;;16.55;88.94
73674;BME280;61975;48.660;10.164;2022-09-09T07:49:14;95389.25;;;16.70;88.12
73674;BME280;61975;48.660;10.164;2022-09-09T07:51:45;95384.28;;;16.77;87.82
73674;BME280;61975;48.660;10.164;2022-09-09T07:54:13;95384.94;;;16.85;87.61
73674;BME280;61975;48.660;10.164;2022-09-09T07:56:39;95388.00;;;16.94;87.01
73674;BME280;61975;48.660;10.164;2022-09-09T07:59:06;95395.31;;;17.07;86.85
73674;BME280;61975;48.660;10.164;2022-09-09T08:01:32;95379.50;;;17.17;85.52
73674;BME280;61975;48.660;10.164;2022-09-09T08:04:03;95385.34;;;17.45;84.24
73674;BME280;61975;48.660;10.164;2022-09-09T08:06:31;95392.22;;;17.60;83.09
73674;BME280;61975;48.660;10.164;2022-09-09T08:08:58;95391.13;;;17.74;81.84
73674;BME280;61975;48.660;10.164;2022-09-09T08:11:26;95396.00;;;17.89;81.13
73674;BME280;61975;48.660;10.164;2022-09-09T08:13:52;95397.50;;;18.10;81.25
73674;BME280;61975;48.660;10.164;2022-09-09T08:16:20;95400.22;;;18.29;78.98
73674;BME280;61975;48.660;10.164;2022-09-09T08:18:50;95397.34;;;18.49;77.40
73674;BME280;61975;48.660;10.164;2022-09-09T08:21:24;95391.22;;;18.70;77.63
73674;BME280;61975;48.660;10.164;2022-09-09T08:23:51;95390.09;;;18.80;76.30
73674;BME280;61975;48.660;10.164;2022-09-09T08:26:20;95398.81;;;18.85;77.43
73674;BME280;61975;48.660;10.164;2022-09-09T08:28:50;95398.78;;;19.01;76.39
73674;BME280;61975;48.660;10.164;2022-09-09T08:31:22;95388.81;;;19.13;76.28
73674;BME280;61975;48.660;10.164;2022-09-09T08:33:48;95389.38;;;19.08;75.56
73674;BME280;61975;48.660;10.164;2022-09-09T08:36:19;95396.91;;;19.11;76.27
73674;BME280;61975;48.660;10.164;2022-09-09T08:38:48;95401.22;;;19.44;75.74
73674;BME280;61975;48.660;10.164;2022-09-09T08:51:58;95413.06;;;20.05;71.71
73674;BME280;61975;48.660;10.164;2022-09-09T08:54:25;95412.25;;;20.05;71.53
73674;BME280;61975;48.660;10.164;2022-09-09T08:56:58;95414.63;;;19.94;71.66
73674;BME280;61975;48.660;10.164;2022-09-09T08:59:23;95405.22;;;19.84;70.83
73674;BME280;61975;48.660;10.164;2022-09-09T09:07:40;95397.72;;;20.06;67.12
73674;BME280;61975;48.660;10.164;2022-09-09T09:12:56;95412.56;;;19.94;66.41
73674;BME280;61975;48.660;10.164;2022-09-09T09:15:28;95405.47;;;19.90;65.75
73674;BME280;61975;48.660;10.164;2022-09-09T09:17:56;95402.41;;;19.84;65.31
73674;BME280;61975;48.660;10.164;2022-09-09T09:23:21;95399.13;;;19.73;65.87
73674;BME280;61975;48.660;10.164;2022-09-09T09:25:47;95401.84;;;19.77;66.94
73674;BME280;61975;48.660;10.164;2022-09-09T09:28:25;95406.03;;;19.97;66.73
73674;BME280;61975;48.660;10.164;2022-09-09T09:33:28;95394.00;;;20.34;63.86
73674;BME280;61975;48.660;10.164;2022-09-09T09:35:57;95390.06;;;20.32;64.50
73674;BME280;61975;48.660;10.164;2022-09-09T09:38:26;95392.75;;;20.35;64.45
73674;BME280;61975;48.660;10.164;2022-09-09T09:40:54;95397.88;;;20.28;61.15
73674;BME280;61975;48.660;10.164;2022-09-09T09:43:30;95399.00;;;20.18;63.12
73674;BME280;61975;48.660;10.164;2022-09-09T09:45:57;95393.69;;;20.20;62.75
73674;BME280;61975;48.660;10.164;2022-09-09T09:48:26;95387.03;;;20.39;62.08
73674;BME280;61975;48.660;10.164;2022-09-09T09:51:01;95381.91;;;20.46;62.21
73674;BME280;61975;48.660;10.164;2022-09-09T09:53:32;95393.41;;;20.64;60.77
73674;BME280;61975;48.660;10.164;2022-09-09T09:56:08;95395.78;;;20.53;58.80
73674;BME280;61975;48.660;10.164;2022-09-09T10:03:53;95390.28;;;20.50;59.62
73674;BME280;61975;48.660;10.164;2022-09-09T10:06:30;95397.22;;;20.70;59.41
73674;BME280;61975;48.660;10.164;2022-09-09T10:08:55;95400.81;;;20.83;58.27
73674;BME280;61975;48.660;10.164;2022-09-09T10:11:44;95392.84;;;20.69;58.07
73674;BME280;61975;48.660;10.164;2022-09-09T10:19:26;95381.91;;;20.71;57.67
73674;BME280;61975;48.660;10.164;2022-09-09T10:35:27;95368.00;;;20.77;56.41
73674;BME280;61975;48.660;10.164;2022-09-09T10:38:38;95371.75;;;20.61;57.19
73674;BME280;61975;48.660;10.164;2022-09-09T10:41:22;95373.00;;;20.48;57.66
73674;BME280;61975;48.660;10.164;2022-09-09T10:44:14;95378.78;;;20.44;57.62
73674;BME280;61975;48.660;10.164;2022-09-09T10:52:14;95369.00;;;20.70;57.73
73674;BME280;61975;48.660;10.164;2022-09-09T10:54:57;95366.22;;;21.04;56.64
73674;BME280;61975;48.660;10.164;2022-09-09T10:57:33;95361.16;;;21.33;56.87
73674;BME280;61975;48.660;10.164;2022-09-09T11:00:10;95363.25;;;21.42;54.93
73674;BME280;61975;48.660;10.164;2022-09-09T11:02:40;95363.75;;;21.49;54.31
73674;BME280;61975;48.660;10.164;2022-09-09T11:05:26;95366.50;;;21.62;53.54
73674;BME280;61975;48.660;10.164;2022-09-09T11:13:41;95357.38;;;21.80;52.96
73674;BME280;61975;48.660;10.164;2022-09-09T11:16:16;95352.25;;;21.66;53.84
73674;BME280;61975;48.660;10.164;2022-09-09T11:18:46;95356.81;;;21.41;53.10
73674;BME280;61975;48.660;10.164;2022-09-09T11:21:26;95363.81;;;21.37;53.83
73674;BME280;61975;48.660;10.164;2022-09-09T11:23:59;95363.47;;;21.35;51.86
73674;BME280;61975;48.660;10.164;2022-09-09T11:26:37;95367.44;;;21.37;51.82
73674;BME280;61975;48.660;10.164;2022-09-09T11:37:22;95355.00;;;21.56;49.04
73674;BME280;61975;48.660;10.164;2022-09-09T11:39:58;95353.44;;;21.55;46.76
73674;BME280;61975;48.660;10.164;2022-09-09T11:42:29;95355.47;;;21.77;46.58
73674;BME280;61975;48.660;10.164;2022-09-09T11:44:55;95351.41;;;21.78;45.63
73674;BME280;61975;48.660;10.164;2022-09-09T11:47:30;95340.78;;;21.91;45.48
73674;BME280;61975;48.660;10.164;2022-09-09T11:52:44;95357.16;;;22.35;43.63
73674;BME280;61975;48.660;10.164;2022-09-09T11:58:03;95357.94;;;22.36;43.56
73674;BME280;61975;48.660;10.164;2022-09-09T12:03:00;95369.94;;;22.09;45.22
73674;BME280;61975;48.660;10.164;2022-09-09T12:05:39;95360.66;;;22.09;45.03
73674;BME280;61975;48.660;10.164;2022-09-09T12:08:06;95360.81;;;22.05;44.54
73674;BME280;61975;48.660;10.164;2022-09-09T12:10:37;95367.06;;;22.00;43.96
73674;BME280;61975;48.660;10.164;2022-09-09T12:13:20;95360.78;;;21.75;44.80
73674;BME280;61975;48.660;10.164;2022-09-09T12:15:53;95347.06;;;21.86;44.08
73674;BME280;61975;48.660;10.164;2022-09-09T12:18:25;95345.59;;;22.12;44.20
73674;BME280;61975;48.660;10.164;2022-09-09T12:23:55;95342.50;;;22.76;42.10
73674;BME280;61975;48.660;10.164;2022-09-09T12:26:47;95336.72;;;22.80;40.70
73674;BME280;61975;48.660;10.164;2022-09-09T12:32:24;95337.75;;;22.55;40.88
73674;BME280;61975;48.660;10.164;2022-09-09T12:34:56;95331.94;;;22.50;42.67
73674;BME280;61975;48.660;10.164;2022-09-09T12:39:59;95328.22;;;22.80;40.47
73674;BME280;61975;48.660;10.164;2022-09-09T12:42:26;95349.25;;;22.79;38.71
73674;BME280;61975;48.660;10.164;2022-09-09T12:44:56;95327.88;;;22.78;38.13
73674;BME280;61975;48.660;10.164;2022-09-09T12:47:38;95328.88;;;22.93;37.42
73674;BME280;61975;48.660;10.164;2022-09-09T12:50:20;95315.19;;;22.91;37.78
73674;BME280;61975;48.660;10.164;2022-09-09T12:52:48;95311.69;;;22.78;37.94
73674;BME280;61975;48.660;10.164;2022-09-09T12:55:20;95315.50;;;22.84;38.28
73674;BME280;61975;48.660;10.164;2022-09-09T12:57:48;95305.59;;;23.07;38.54
73674;BME280;61975;48.660;10.164;2022-09-09T13:00:20;95289.69;;;23.36;37.06
73674;BME280;61975;48.660;10.164;2022-09-09T13:02:53;95299.91;;;23.43;37.57
73674;BME280;61975;48.660;10.164;2022-09-09T13:05:24;95291.72;;;23.45;38.02
73674;BME280;61975;48.660;10.164;2022-09-09T13:07:50;95312.22;;;23.22;38.08
73674;BME280;61975;48.660;10.164;2022-09-09T13:10:26;95314.69;;;22.84;39.94
73674;BME280;61975;48.660;10.164;2022-09-09T13:12:54;95326.19;;;22.41;41.40
73674;BME280;61975;48.660;10.164;2022-09-09T13:15:24;95320.72;;;21.98;43.73
73674;BME280;61975;48.660;10.164;2022-09-09T13:17:57;95307.50;;;21.86;45.04
73674;BME280;61975;48.660;10.164;2022-09-09T13:20:26;95310.78;;;21.84;45.34
73674;BME280;61975;48.660;10.164;2022-09-09T13:22:53;95312.69;;;21.87;45.06
73674;BME280;61975;48.660;10.164;2022-09-09T13:25:27;95310.00;;;21.84;45.02
73674;BME280;61975;48.660;10.164;2022-09-09T13:35:30;95317.22;;;21.85;44.98
73674;BME280;61975;48.660;10.164;2022-09-09T13:37:57;95316.44;;;21.63;46.15
73674;BME280;61975;48.660;10.164;2022-09-09T13:40:24;95307.25;;;21.49;45.15
73674;BME280;61975;48.660;10.164;2022-09-09T13:42:55;95306.25;;;21.34;44.78
73674;BME280;61975;48.660;10.164;2022-09-09T13:45:24;95308.34;;;21.21;44.70
73674;BME280;61975;48.660;10.164;2022-09-09T13:47:54;95317.06;;;21.14;44.79
73674;BME280;61975;48.660;10.164;2022-09-09T13:52:50;95301.50;;;21.10;45.31
73674;BME280;61975;48.660;10.164;2022-09-09T13:55:18;95296.41;;;21.17;45.20
73674;BME280;61975;48.660;10.164;2022-09-09T13:58:00;95300.78;;;21.18;44.50
73674;BME280;61975;48.660;10.164;2022-09-09T14:00:26;95293.91;;;20.98;44.42
73674;BME280;61975;48.660;10.164;2022-09-09T14:02:53;95302.00;;;20.74;45.54
73674;BME280;61975;48.660;10.164;2022-09-09T14:05:20;95294.00;;;20.60;45.85
73674;BME280;61975;48.660;10.164;2022-09-09T14:07:47;95305.44;;;20.57;46.35
73674;BME280;61975;48.660;10.164;2022-09-09T14:10:13;95295.84;;;20.54;45.94
73674;BME280;61975;48.660;10.164;2022-09-09T14:12:39;95291.81;;;20.43;46.07
73674;BME280;61975;48.660;10.164;2022-09-09T14:15:05;95284.47;;;20.45;46.27
73674;BME280;61975;48.660;10.164;2022-09-09T14:17:31;95295.25;;;20.59;45.21
73674;BME280;61975;48.660;10.164;2022-09-09T14:19:57;95282.28;;;20.62;45.35
73674;BME280;61975;48.660;10.164;2022-09-09T14:22:23;95287.03;;;20.86;44.96
73674;BME280;61975;48.660;10.164;2022-09-09T14:24:49;95288.41;;;21.46;43.77
73674;BME280;61975;48.660;10.164;2022-09-09T14:27:16;95290.34;;;25.03;37.13
73674;BME280;61975;48.660;10.164;2022-09-09T14:29:41;95275.31;;;27.88;32.30
73674;BME280;61975;48.660;10.164;2022-09-09T14:32:09;95280.38;;;30.11;29.45
73674;BME280;61975;48.660;10.164;2022-09-09T14:34:34;95276.75;;;33.15;26.06
73674;BME280;61975;48.660;10.164;2022-09-09T14:37:00;95274.22;;;35.82;22.79
73674;BME280;61975;48.660;10.164;2022-09-09T14:39:25;95273.97;;;37.30;21.22
73674;BME280;61975;48.660;10.164;2022-09-09T14:41:51;95265.19;;;38.14;20.29
73674;BME280;61975;48.660;10.164;2022-09-09T14:44:16;95274.31;;;38.25;20.03
73674;BME280;61975;48.660;10.164;2022-09-09T14:46:42;95281.22;;;37.72;20.76
73674;BME280;61975;48.660;10.164;2022-09-09T14:49:08;95274.75;;;37.94;20.06
73674;BME280;61975;48.660;10.164;2022-09-09T14:51:33;95286.75;;;37.98;19.80
73674;BME280;61975;48.660;10.164;2022-09-09T14:53:59;95275.31;;;38.35;20.12
73674;BME280;61975;48.660;10.164;2022-09-09T14:56:27;95288.38;;;39.32;19.02
73674;BME280;61975;48.660;10.164;2022-09-09T14:58:55;95295.88;;;40.42;18.06
73674;BME280;61975;48.660;10.164;2022-09-09T15:01:22;95292.19;;;39.95;18.36
73674;BME280;61975;48.660;10.164;2022-09-09T15:03:50;95294.03;;;39.00;18.45
73674;BME280;61975;48.660;10.164;2022-09-09T15:06:16;95288.81;;;39.06;18.88
73674;BME280;61975;48.660;10.164;2022-09-09T15:08:43;95298.28;;;39.44;18.28
73674;BME280;61975;48.660;10.164;2022-09-09T15:11:11;95306.09;;;38.46;18.97
73674;BME280;61975;48.660;10.164;2022-09-09T15:13:38;95303.59;;;36.07;20.72
73674;BME280;61975;48.660;10.164;2022-09-09T15:16:12;95297.59;;;33.88;22.93
73674;BME280;61975;48.660;10.164;2022-09-09T15:18:38;95296.13;;;31.91;25.17
73674;BME280;61975;48.660;10.164;2022-09-09T15:21:09;95307.41;;;29.99;27.89